Time,TemperatureF,DewpointF,PressureIn,WindDirection,WindDirectionDegrees,WindSpeedMPH,WindSpeedGustMPH,Humidity,HourlyPrecipIn,Conditions,Clouds,dailyrainin,SoftwareType,DateUTC
2013-02-19 00:01:00,40.5,35.8,29.69,West,266,0.0,0.0,83,0.02,,SKC,0.00,VWS V13.01,2013-02-19 08:01:00,
2013-02-19 00:11:00,40.6,35.8,29.69,WNW,300,0.0,0.0,83,0.03,,SKC,0.01,VWS V13.01,2013-02-19 08:11:00,
2013-02-19 00:21:00,40.6,36.2,29.68,WNW,300,0.0,0.0,84,0.03,,SKC,0.01,VWS V13.01,2013-02-19 08:21:00,
2013-02-19 00:31:00,40.2,36.1,29.68,South,174,0.0,0.0,85,0.04,,SKC,0.02,VWS V13.01,2013-02-19 08:31:00,
2013-02-19 00:41:00,40.1,36.3,29.68,South,177,0.0,0.0,86,0.05,,SKC,0.03,VWS V13.01,2013-02-19 08:41:00,
2013-02-19 00:51:00,39.9,36.1,29.67,SE,142,0.0,0.0,86,0.06,,SKC,0.04,VWS V13.01,2013-02-19 08:51:00,
2013-02-19 01:01:00,39.8,36.0,29.66,ESE,113,0.0,0.0,86,0.05,,SKC,0.04,VWS V13.01,2013-02-19 09:01:00,
2013-02-19 01:11:00,39.6,35.8,29.66,SE,141,0.0,0.0,86,0.04,,SKC,0.04,VWS V13.01,2013-02-19 09:11:00,
2013-02-19 01:21:00,39.5,36.0,29.66,ESE,116,0.0,0.0,87,0.03,,SKC,0.04,VWS V13.01,2013-02-19 09:21:00,
2013-02-19 01:31:00,39.5,36.0,29.65,SE,126,0.0,0.0,87,0.03,,SKC,0.04,VWS V13.01,2013-02-19 09:31:00,
2013-02-19 01:41:00,39.5,36.0,29.65,SE,142,0.0,0.0,87,0.02,,SKC,0.04,VWS V13.01,2013-02-19 09:41:00,
2013-02-19 01:51:00,39.5,36.0,29.65,SE,143,0.0,0.0,87,0.02,,SKC,0.05,VWS V13.01,2013-02-19 09:51:00,
2013-02-19 02:01:00,39.5,36.0,29.64,SE,138,0.0,0.0,87,0.02,,SKC,0.06,VWS V13.01,2013-02-19 10:01:00,
2013-02-19 02:11:00,39.6,36.1,29.64,SSW,195,0.0,0.0,87,0.02,,SKC,0.06,VWS V13.01,2013-02-19 10:11:00,
2013-02-19 02:21:00,39.6,36.1,29.64,South,184,0.0,0.0,87,0.02,,SKC,0.06,VWS V13.01,2013-02-19 10:21:00,
2013-02-19 02:31:00,39.6,36.3,29.64,SSE,162,0.0,0.0,88,0.03,,SKC,0.07,VWS V13.01,2013-02-19 10:31:00,
2013-02-19 02:41:00,39.5,36.0,29.64,South,187,0.0,0.0,87,0.03,,SKC,0.07,VWS V13.01,2013-02-19 10:41:00,
2013-02-19 02:51:00,39.3,35.8,29.64,SSE,166,0.0,0.0,87,0.03,,SKC,0.07,VWS V13.01,2013-02-19 10:51:00,
2013-02-19 03:01:00,39.2,35.7,29.63,ESE,122,0.0,0.0,87,0.02,,SKC,0.07,VWS V13.01,2013-02-19 11:01:00,
2013-02-19 03:11:00,39.1,35.6,29.63,ESE,123,0.0,0.0,87,0.01,,SKC,0.07,VWS V13.01,2013-02-19 11:11:00,
2013-02-19 03:21:00,39.1,35.6,29.62,SE,144,0.0,0.0,87,0.01,,SKC,0.07,VWS V13.01,2013-02-19 11:21:00,
2013-02-19 03:31:00,38.9,35.4,29.62,SE,125,0.0,0.0,87,0.01,,SKC,0.07,VWS V13.01,2013-02-19 11:31:00,
2013-02-19 03:41:00,38.8,35.3,29.62,ESE,110,0.0,0.0,87,0.00,,SKC,0.07,VWS V13.01,2013-02-19 11:41:00,
2013-02-19 03:51:00,38.6,35.1,29.61,East,84,0.0,0.0,87,0.00,,SKC,0.07,VWS V13.01,2013-02-19 11:51:00,
2013-02-19 04:01:00,38.5,35.0,29.61,ESE,110,0.0,0.0,87,0.00,,SKC,0.07,VWS V13.01,2013-02-19 12:01:00,
2013-02-19 04:11:00,38.3,34.8,29.61,ESE,104,0.0,0.0,87,0.00,,SKC,0.07,VWS V13.01,2013-02-19 12:11:00,
2013-02-19 04:21:00,38.0,34.5,29.61,ENE,78,0.0,0.0,87,0.00,,SKC,0.07,VWS V13.01,2013-02-19 12:21:00,
2013-02-19 04:31:00,38.0,34.5,29.60,ESE,111,0.0,0.0,87,0.00,,SKC,0.07,VWS V13.01,2013-02-19 12:31:00,
2013-02-19 04:41:00,37.9,34.4,29.60,East,94,0.0,0.0,87,0.00,,SKC,0.07,VWS V13.01,2013-02-19 12:41:00,
2013-02-19 04:51:00,37.8,34.3,29.61,SE,134,0.0,0.0,87,0.00,,SKC,0.07,VWS V13.01,2013-02-19 12:51:00,
2013-02-19 05:01:00,37.6,34.1,29.61,ESE,110,0.0,0.0,87,0.00,,SKC,0.07,VWS V13.01,2013-02-19 13:01:00,
2013-02-19 05:11:00,37.6,34.1,29.61,East,101,0.0,0.0,87,0.00,,SKC,0.07,VWS V13.01,2013-02-19 13:11:00,
2013-02-19 05:21:00,37.8,34.3,29.62,SE,127,0.0,0.0,87,0.01,,SKC,0.08,VWS V13.01,2013-02-19 13:21:00,
2013-02-19 05:31:00,37.9,34.4,29.61,SE,132,0.0,0.0,87,0.01,,SKC,0.08,VWS V13.01,2013-02-19 13:31:00,
2013-02-19 05:41:00,37.9,34.4,29.61,ESE,120,0.0,0.0,87,0.01,,SKC,0.08,VWS V13.01,2013-02-19 13:41:00,
2013-02-19 05:51:00,38.0,34.5,29.62,SSE,158,0.0,0.0,87,0.01,,SKC,0.08,VWS V13.01,2013-02-19 13:51:00,
2013-02-19 06:01:00,38.2,34.7,29.62,ESE,115,0.0,0.0,87,0.01,,SKC,0.08,VWS V13.01,2013-02-19 14:01:00,
2013-02-19 06:11:00,38.2,34.4,29.62,SE,136,0.0,0.0,86,0.01,,SKC,0.08,VWS V13.01,2013-02-19 14:11:00,
2013-02-19 06:21:00,38.3,34.5,29.62,SSE,152,0.0,0.0,86,0.01,,SKC,0.08,VWS V13.01,2013-02-19 14:21:00,
2013-02-19 06:31:00,38.3,34.2,29.62,SSE,159,0.0,0.0,85,0.00,,SKC,0.08,VWS V13.01,2013-02-19 14:31:00,
2013-02-19 06:41:00,38.3,34.2,29.62,WNW,293,0.0,0.0,85,0.00,,SKC,0.08,VWS V13.01,2013-02-19 14:41:00,
2013-02-19 06:51:00,38.2,34.1,29.62,WNW,293,0.0,0.0,85,0.00,,SKC,0.08,VWS V13.01,2013-02-19 14:51:00,
2013-02-19 07:01:00,37.9,34.1,29.63,NNW,335,0.0,0.0,86,0.00,,SKC,0.08,VWS V13.01,2013-02-19 15:01:00,
2013-02-19 07:11:00,37.6,33.8,29.63,NNW,334,0.0,0.0,86,0.00,,SKC,0.08,VWS V13.01,2013-02-19 15:11:00,
2013-02-19 07:21:00,37.6,34.1,29.63,NNW,335,0.0,0.0,87,0.00,,SKC,0.08,VWS V13.01,2013-02-19 15:21:00,
2013-02-19 07:31:00,37.6,34.1,29.64,NNW,335,0.0,0.0,87,0.00,,SKC,0.08,VWS V13.01,2013-02-19 15:31:00,
2013-02-19 07:41:00,37.6,34.1,29.64,NNW,334,0.0,0.0,87,0.00,,SKC,0.08,VWS V13.01,2013-02-19 15:41:00,
2013-02-19 07:51:00,37.8,34.6,29.64,NNW,335,0.0,0.0,88,0.00,,SKC,0.08,VWS V13.01,2013-02-19 15:51:00,
2013-02-19 08:01:00,37.9,34.7,29.65,NNW,335,0.0,0.0,88,0.00,,SKC,0.08,VWS V13.01,2013-02-19 16:01:00,
2013-02-19 08:11:00,38.0,34.8,29.65,NNW,334,0.0,0.0,88,0.00,,SKC,0.08,VWS V13.01,2013-02-19 16:11:00,
2013-02-19 08:21:00,38.2,35.0,29.66,SSE,167,0.0,0.0,88,0.00,,SKC,0.08,VWS V13.01,2013-02-19 16:21:00,
2013-02-19 08:31:00,38.2,35.0,29.66,SSE,167,0.0,0.0,88,0.00,,SKC,0.08,VWS V13.01,2013-02-19 16:31:00,
2013-02-19 08:41:00,38.5,35.3,29.66,SSE,166,0.0,0.0,88,0.00,,SKC,0.08,VWS V13.01,2013-02-19 16:41:00,
2013-02-19 08:51:00,38.6,35.4,29.66,SSE,166,0.0,0.0,88,0.00,,SKC,0.08,VWS V13.01,2013-02-19 16:51:00,
2013-02-19 09:01:00,39.1,35.6,29.67,SSE,166,0.0,0.0,87,0.00,,SKC,0.08,VWS V13.01,2013-02-19 17:01:00,
2013-02-19 09:11:00,38.9,34.8,29.67,SSE,166,0.0,0.0,85,0.00,,SKC,0.08,VWS V13.01,2013-02-19 17:11:00,
2013-02-19 09:21:00,39.6,35.5,29.67,South,177,0.0,0.0,85,0.00,,SKC,0.08,VWS V13.01,2013-02-19 17:21:00,
2013-02-19 09:31:00,40.1,35.7,29.67,South,177,0.0,0.0,84,0.00,,SKC,0.08,VWS V13.01,2013-02-19 17:31:00,
2013-02-19 09:41:00,40.5,36.0,29.67,South,177,0.0,0.0,84,0.00,,SKC,0.08,VWS V13.01,2013-02-19 17:41:00,
2013-02-19 09:51:00,40.9,35.5,29.67,ESE,103,0.0,0.0,81,0.00,,SKC,0.08,VWS V13.01,2013-02-19 17:51:00,
2013-02-19 10:01:00,41.8,36.1,29.67,ESE,103,0.0,0.0,80,0.00,,SKC,0.08,VWS V13.01,2013-02-19 18:01:00,
2013-02-19 10:11:00,41.9,36.2,29.67,ESE,103,0.0,0.0,80,0.00,,SKC,0.08,VWS V13.01,2013-02-19 18:11:00,
2013-02-19 10:21:00,42.2,36.5,29.68,WNW,298,0.0,0.0,80,0.00,,SKC,0.08,VWS V13.01,2013-02-19 18:21:00,
2013-02-19 10:31:00,41.9,36.8,29.68,NW,319,0.0,0.0,82,0.00,,SKC,0.08,VWS V13.01,2013-02-19 18:31:00,
2013-02-19 10:41:00,41.9,37.1,29.68,NW,322,0.0,0.0,83,0.00,,SKC,0.08,VWS V13.01,2013-02-19 18:41:00,
2013-02-19 10:51:00,41.8,37.0,29.69,North,0,0.0,0.0,83,0.00,,SKC,0.08,VWS V13.01,2013-02-19 18:51:00,
2013-02-19 11:01:00,41.6,36.8,29.70,NNE,20,0.0,0.0,83,0.00,,SKC,0.08,VWS V13.01,2013-02-19 19:01:00,
2013-02-19 11:11:00,42.3,37.5,29.70,North,353,0.0,0.0,83,0.00,,SKC,0.08,VWS V13.01,2013-02-19 19:11:00,
2013-02-19 11:21:00,42.9,37.5,29.70,NW,323,0.0,0.0,81,0.00,,SKC,0.08,VWS V13.01,2013-02-19 19:21:00,
2013-02-19 11:31:00,43.2,37.5,29.70,North,357,0.0,0.0,80,0.00,,SKC,0.08,VWS V13.01,2013-02-19 19:31:00,
2013-02-19 11:41:00,43.1,37.4,29.70,North,358,0.0,0.0,80,0.00,,SKC,0.08,VWS V13.01,2013-02-19 19:41:00,
2013-02-19 11:51:00,43.3,36.9,29.70,NNE,12,0.0,0.0,78,0.00,,SKC,0.08,VWS V13.01,2013-02-19 19:51:00,
2013-02-19 12:01:00,44.1,37.0,29.70,NNW,330,0.0,0.0,76,0.00,,SKC,0.08,VWS V13.01,2013-02-19 20:01:00,
2013-02-19 12:11:00,44.6,37.5,29.70,North,352,0.0,0.0,76,0.00,,SKC,0.08,VWS V13.01,2013-02-19 20:11:00,
2013-02-19 12:21:00,44.2,36.8,29.70,North,0,0.0,0.0,75,0.00,,SKC,0.08,VWS V13.01,2013-02-19 20:21:00,
2013-02-19 12:31:00,44.5,37.4,29.71,North,349,0.0,0.0,76,0.00,,SKC,0.08,VWS V13.01,2013-02-19 20:31:00,
2013-02-19 12:41:00,45.2,37.8,29.71,West,280,0.0,0.0,75,0.00,,SKC,0.08,VWS V13.01,2013-02-19 20:41:00,
2013-02-19 12:51:00,45.8,37.3,29.71,NNW,333,0.0,0.0,72,0.00,,SKC,0.08,VWS V13.01,2013-02-19 20:51:00,
2013-02-19 13:01:00,47.0,38.1,29.71,NNW,327,0.0,0.0,71,0.00,,SKC,0.08,VWS V13.01,2013-02-19 21:01:00,
2013-02-19 13:11:00,47.0,37.4,29.71,North,3,0.0,0.0,69,0.00,,SKC,0.08,VWS V13.01,2013-02-19 21:11:00,
2013-02-19 13:21:00,47.6,38.0,29.72,NNW,336,0.0,0.0,69,0.00,,SKC,0.08,VWS V13.01,2013-02-19 21:21:00,
2013-02-19 13:31:00,48.2,37.4,29.72,NNW,333,0.0,0.0,66,0.00,,SKC,0.08,VWS V13.01,2013-02-19 21:31:00,
2013-02-19 13:41:00,48.0,36.4,29.72,NW,309,0.0,0.0,64,0.00,,SKC,0.08,VWS V13.01,2013-02-19 21:41:00,
2013-02-19 13:51:00,48.0,36.4,29.72,NNW,328,0.0,0.0,64,0.00,,SKC,0.08,VWS V13.01,2013-02-19 21:51:00,
2013-02-19 14:01:00,48.8,36.4,29.73,North,2,0.0,0.0,62,0.00,,SKC,0.08,VWS V13.01,2013-02-19 22:01:00,
2013-02-19 14:11:00,48.5,36.9,29.73,NW,304,0.0,0.0,64,0.00,,SKC,0.08,VWS V13.01,2013-02-19 22:11:00,
2013-02-19 14:21:00,48.2,35.8,29.73,NW,308,0.0,0.0,62,0.00,,SKC,0.08,VWS V13.01,2013-02-19 22:21:00,
2013-02-19 14:31:00,49.2,36.3,29.73,North,354,0.0,0.0,61,0.00,,SKC,0.08,VWS V13.01,2013-02-19 22:31:00,
2013-02-19 14:41:00,49.6,36.7,29.73,North,358,0.0,0.0,61,0.00,,SKC,0.08,VWS V13.01,2013-02-19 22:41:00,
2013-02-19 14:51:00,49.8,35.6,29.73,NNE,27,0.0,0.0,58,0.00,,SKC,0.08,VWS V13.01,2013-02-19 22:51:00,
2013-02-19 15:01:00,49.5,35.3,29.74,NNW,343,0.0,0.0,58,0.00,,SKC,0.08,VWS V13.01,2013-02-19 23:01:00,
2013-02-19 15:11:00,49.5,35.3,29.74,North,354,0.0,0.0,58,0.00,,SKC,0.08,VWS V13.01,2013-02-19 23:11:00,
2013-02-19 15:21:00,49.2,35.9,29.75,North,0,0.0,0.0,60,0.00,,SKC,0.08,VWS V13.01,2013-02-19 23:21:00,
2013-02-19 15:31:00,49.2,35.9,29.75,NNW,335,0.0,0.0,60,0.00,,SKC,0.08,VWS V13.01,2013-02-19 23:31:00,
2013-02-19 15:41:00,49.2,35.5,29.75,North,0,0.0,0.0,59,0.00,,SKC,0.08,VWS V13.01,2013-02-19 23:41:00,
2013-02-19 15:51:00,49.1,35.4,29.75,North,352,0.0,0.0,59,0.00,,SKC,0.08,VWS V13.01,2013-02-19 23:51:00,
2013-02-19 16:01:00,49.2,35.9,29.75,North,358,0.0,0.0,60,0.00,,SKC,0.08,VWS V13.01,2013-02-20 00:01:00,
2013-02-19 16:11:00,48.9,35.6,29.75,NNW,343,0.0,0.0,60,0.00,,SKC,0.08,VWS V13.01,2013-02-20 00:11:00,
2013-02-19 16:21:00,48.9,35.6,29.76,North,0,0.0,0.0,60,0.00,,SKC,0.08,VWS V13.01,2013-02-20 00:21:00,
2013-02-19 16:31:00,48.3,36.3,29.77,NNW,333,0.0,0.0,63,0.00,,SKC,0.08,VWS V13.01,2013-02-20 00:31:00,
2013-02-19 16:41:00,47.4,36.2,29.77,North,354,0.0,0.0,65,0.00,,SKC,0.08,VWS V13.01,2013-02-20 00:41:00,
2013-02-19 16:51:00,46.8,36.4,29.77,NNW,337,0.0,0.0,67,0.00,,SKC,0.08,VWS V13.01,2013-02-20 00:51:00,
2013-02-19 17:01:00,46.5,36.5,29.78,NNW,336,0.0,0.0,68,0.00,,SKC,0.08,VWS V13.01,2013-02-20 01:01:00,
2013-02-19 17:11:00,46.7,36.7,29.78,NNW,342,0.0,0.0,68,0.00,,SKC,0.08,VWS V13.01,2013-02-20 01:11:00,
2013-02-19 17:21:00,46.4,36.8,29.78,NNW,342,0.0,0.0,69,0.00,,SKC,0.08,VWS V13.01,2013-02-20 01:21:00,
2013-02-19 17:31:00,46.2,36.6,29.78,NNW,342,0.0,0.0,69,0.00,,SKC,0.08,VWS V13.01,2013-02-20 01:31:00,
2013-02-19 17:41:00,46.0,36.8,29.78,NNW,342,0.0,0.0,70,0.00,,SKC,0.08,VWS V13.01,2013-02-20 01:41:00,
2013-02-19 17:51:00,45.7,36.8,29.80,ENE,66,0.0,0.0,71,0.00,,SKC,0.08,VWS V13.01,2013-02-20 01:51:00,
2013-02-19 18:01:00,45.5,37.0,29.80,NE,53,0.0,0.0,72,0.00,,SKC,0.08,VWS V13.01,2013-02-20 02:01:00,
2013-02-19 18:11:00,45.5,37.0,29.80,NE,53,0.0,0.0,72,0.00,,SKC,0.08,VWS V13.01,2013-02-20 02:11:00,
2013-02-19 18:21:00,45.5,37.0,29.81,ESE,102,0.0,0.0,72,0.00,,SKC,0.08,VWS V13.01,2013-02-20 02:21:00,
2013-02-19 18:31:00,45.2,37.4,29.82,ESE,122,0.0,0.0,74,0.00,,SKC,0.08,VWS V13.01,2013-02-20 02:31:00,
2013-02-19 18:41:00,44.6,37.2,29.82,SE,139,0.0,0.0,75,0.00,,SKC,0.08,VWS V13.01,2013-02-20 02:41:00,
2013-02-19 18:51:00,44.3,37.6,29.83,SE,127,0.0,0.0,77,0.00,,SKC,0.08,VWS V13.01,2013-02-20 02:51:00,
2013-02-19 19:01:00,44.1,37.7,29.84,SE,128,0.0,0.0,78,0.00,,SKC,0.08,VWS V13.01,2013-02-20 03:01:00,
2013-02-19 19:11:00,43.9,36.2,29.84,SE,127,0.0,0.0,74,0.00,,SKC,0.08,VWS V13.01,2013-02-20 03:11:00,
2013-02-19 19:21:00,43.9,35.5,29.84,ENE,67,0.0,0.0,72,0.00,,SKC,0.08,VWS V13.01,2013-02-20 03:21:00,
2013-02-19 19:31:00,43.8,35.0,29.84,ENE,67,0.0,0.0,71,0.00,,SKC,0.08,VWS V13.01,2013-02-20 03:31:00,
2013-02-19 19:41:00,43.6,34.8,29.84,ENE,66,0.0,0.0,71,0.00,,SKC,0.08,VWS V13.01,2013-02-20 03:41:00,
2013-02-19 19:51:00,43.2,34.8,29.84,ENE,66,0.0,0.0,72,0.00,,SKC,0.08,VWS V13.01,2013-02-20 03:51:00,
2013-02-19 20:01:00,43.1,35.0,29.85,ENE,66,0.0,0.0,73,0.00,,SKC,0.08,VWS V13.01,2013-02-20 04:01:00,
2013-02-19 20:11:00,42.9,35.9,29.85,East,98,0.0,0.0,76,0.00,,SKC,0.08,VWS V13.01,2013-02-20 04:11:00,
2013-02-19 20:21:00,42.6,35.9,29.86,East,98,0.0,0.0,77,0.00,,SKC,0.08,VWS V13.01,2013-02-20 04:21:00,
2013-02-19 20:31:00,42.5,36.1,29.86,East,98,0.0,0.0,78,0.00,,SKC,0.08,VWS V13.01,2013-02-20 04:31:00,
2013-02-19 20:41:00,42.2,35.8,29.86,East,98,0.0,0.0,78,0.00,,SKC,0.08,VWS V13.01,2013-02-20 04:41:00,
2013-02-19 20:51:00,41.8,35.8,29.87,East,98,0.0,0.0,79,0.00,,SKC,0.08,VWS V13.01,2013-02-20 04:51:00,
2013-02-19 21:01:00,41.2,35.2,29.88,East,98,0.0,0.0,79,0.00,,SKC,0.08,VWS V13.01,2013-02-20 05:01:00,
2013-02-19 21:11:00,41.1,35.1,29.88,East,98,0.0,0.0,79,0.00,,SKC,0.08,VWS V13.01,2013-02-20 05:11:00,
2013-02-19 21:21:00,41.3,35.3,29.89,East,98,0.0,0.0,79,0.00,,SKC,0.08,VWS V13.01,2013-02-20 05:21:00,
2013-02-19 21:31:00,41.3,35.6,29.89,East,98,0.0,0.0,80,0.00,,SKC,0.08,VWS V13.01,2013-02-20 05:31:00,
2013-02-19 21:41:00,40.9,35.5,29.89,East,98,0.0,0.0,81,0.00,,SKC,0.08,VWS V13.01,2013-02-20 05:41:00,
2013-02-19 21:51:00,40.5,35.5,29.90,East,98,0.0,0.0,82,0.00,,SKC,0.08,VWS V13.01,2013-02-20 05:51:00,
2013-02-19 22:01:00,39.9,35.2,29.91,East,98,0.0,0.0,83,0.00,,SKC,0.08,VWS V13.01,2013-02-20 06:01:00,
2013-02-19 22:11:00,39.8,35.4,29.91,East,97,0.0,0.0,84,0.00,,SKC,0.08,VWS V13.01,2013-02-20 06:11:00,
2013-02-19 22:21:00,39.5,35.4,29.91,East,101,0.0,0.0,85,0.00,,SKC,0.08,VWS V13.01,2013-02-20 06:21:00,
2013-02-19 22:31:00,39.3,35.5,29.91,East,101,0.0,0.0,86,0.00,,SKC,0.08,VWS V13.01,2013-02-20 06:31:00,
2013-02-19 22:41:00,39.3,35.5,29.91,East,101,0.0,0.0,86,0.00,,SKC,0.08,VWS V13.01,2013-02-20 06:41:00,
2013-02-19 22:51:00,39.3,35.5,29.92,East,101,0.0,0.0,86,0.00,,SKC,0.08,VWS V13.01,2013-02-20 06:51:00,
2013-02-19 23:01:00,39.3,35.8,29.92,East,101,0.0,0.0,87,0.00,,SKC,0.08,VWS V13.01,2013-02-20 07:01:00,
2013-02-19 23:11:00,39.3,35.8,29.92,East,101,0.0,0.0,87,0.00,,SKC,0.08,VWS V13.01,2013-02-20 07:11:00,
2013-02-19 23:21:00,39.5,36.0,29.93,East,94,0.0,0.0,87,0.00,,SKC,0.08,VWS V13.01,2013-02-20 07:21:00,
2013-02-19 23:31:00,39.5,36.0,29.94,East,98,0.0,0.0,87,0.00,,SKC,0.08,VWS V13.01,2013-02-20 07:31:00,
2013-02-19 23:41:00,39.3,35.8,29.94,East,98,0.0,0.0,87,0.00,,SKC,0.08,VWS V13.01,2013-02-20 07:41:00,
2013-02-19 23:51:00,39.2,35.7,29.94,East,86,0.0,0.0,87,0.00,,SKC,0.08,VWS V13.01,2013-02-20 07:51:00,